sensor_id;sensor_type;location;lat;lon;timestamp;P1;durP1;ratioP1;P2;durP2;ratioP2
40931;SDS011;36257;46.052;12.540;2022-12-08T00:00:07;3.90;;;3.67;;
40931;SDS011;36257;46.052;12.540;2022-12-08T00:02:33;4.00;;;3.73;;
40931;SDS011;36257;46.052;12.540;2022-12-08T00:07:36;5.40;;;3.63;;
40931;SDS011;36257;46.052;12.540;2022-12-08T00:10:21;4.00;;;3.78;;
40931;SDS011;36257;46.052;12.540;2022-12-08T00:12:47;4.13;;;3.83;;
40931;SDS011;36257;46.052;12.540;2022-12-08T00:15:12;3.93;;;3.63;;
40931;SDS011;36257;46.052;12.540;2022-12-08T00:17:38;4.47;;;4.27;;
40931;SDS011;36257;46.052;12.540;2022-12-08T00:20:03;6.27;;;5.07;;
40931;SDS011;36257;46.052;12.540;2022-12-08T00:22:30;5.10;;;4.70;;
40931;SDS011;36257;46.052;12.540;2022-12-08T00:24:56;3.97;;;3.60;;
40931;SDS011;36257;46.052;12.540;2022-12-08T00:27:22;4.37;;;4.13;;
40931;SDS011;36257;46.052;12.540;2022-12-08T00:29:47;2.97;;;2.87;;
40931;SDS011;36257;46.052;12.540;2022-12-08T00:32:13;3.53;;;3.33;;
40931;SDS011;36257;46.052;12.540;2022-12-08T00:34:38;4.27;;;4.00;;
40931;SDS011;36257;46.052;12.540;2022-12-08T00:37:04;4.70;;;4.30;;
40931;SDS011;36257;46.052;12.540;2022-12-08T00:39:30;4.07;;;3.87;;
40931;SDS011;36257;46.052;12.540;2022-12-08T00:41:55;4.13;;;3.73;;
40931;SDS011;36257;46.052;12.540;2022-12-08T00:44:36;3.87;;;3.57;;
40931;SDS011;36257;46.052;12.540;2022-12-08T00:47:02;3.67;;;3.47;;
40931;SDS011;36257;46.052;12.540;2022-12-08T00:49:28;3.33;;;3.13;;
40931;SDS011;36257;46.052;12.540;2022-12-08T00:51:54;3.37;;;3.17;;
40931;SDS011;36257;46.052;12.540;2022-12-08T00:54:19;3.47;;;3.37;;
40931;SDS011;36257;46.052;12.540;2022-12-08T00:56:46;3.72;;;3.53;;
40931;SDS011;36257;46.052;12.540;2022-12-08T00:59:12;3.90;;;3.60;;
40931;SDS011;36257;46.052;12.540;2022-12-08T01:01:38;3.33;;;3.13;;
40931;SDS011;36257;46.052;12.540;2022-12-08T01:07:26;2.77;;;2.67;;
40931;SDS011;36257;46.052;12.540;2022-12-08T01:09:52;3.43;;;3.23;;
40931;SDS011;36257;46.052;12.540;2022-12-08T01:12:17;3.33;;;3.03;;
40931;SDS011;36257;46.052;12.540;2022-12-08T01:14:43;3.30;;;3.10;;
40931;SDS011;36257;46.052;12.540;2022-12-08T01:17:09;3.87;;;3.67;;
40931;SDS011;36257;46.052;12.540;2022-12-08T01:19:34;2.63;;;2.47;;
40931;SDS011;36257;46.052;12.540;2022-12-08T01:22:01;3.17;;;2.97;;
40931;SDS011;36257;46.052;12.540;2022-12-08T01:24:27;3.60;;;3.40;;
40931;SDS011;36257;46.052;12.540;2022-12-08T01:26:52;3.70;;;3.50;;
40931;SDS011;36257;46.052;12.540;2022-12-08T01:29:18;4.40;;;3.33;;
40931;SDS011;36257;46.052;12.540;2022-12-08T01:31:44;3.03;;;2.83;;
40931;SDS011;36257;46.052;12.540;2022-12-08T01:34:10;3.37;;;3.17;;
40931;SDS011;36257;46.052;12.540;2022-12-08T01:36:36;4.17;;;3.07;;
40931;SDS011;36257;46.052;12.540;2022-12-08T01:39:03;3.07;;;2.93;;
40931;SDS011;36257;46.052;12.540;2022-12-08T01:41:32;2.63;;;2.53;;
40931;SDS011;36257;46.052;12.540;2022-12-08T01:44:45;3.60;;;3.40;;
40931;SDS011;36257;46.052;12.540;2022-12-08T01:46:47;4.23;;;4.03;;
40931;SDS011;36257;46.052;12.540;2022-12-08T01:52:08;3.07;;;2.87;;
40931;SDS011;36257;46.052;12.540;2022-12-08T01:54:37;3.23;;;3.03;;
40931;SDS011;36257;46.052;12.540;2022-12-08T01:57:13;4.10;;;3.10;;
40931;SDS011;36257;46.052;12.540;2022-12-08T01:59:44;3.70;;;3.40;;
40931;SDS011;36257;46.052;12.540;2022-12-08T02:02:13;3.80;;;3.60;;
40931;SDS011;36257;46.052;12.540;2022-12-08T02:04:39;3.60;;;3.40;;
40931;SDS011;36257;46.052;12.540;2022-12-08T02:07:05;3.00;;;2.83;;
40931;SDS011;36257;46.052;12.540;2022-12-08T02:09:32;3.05;;;2.88;;
40931;SDS011;36257;46.052;12.540;2022-12-08T02:11:59;3.67;;;3.43;;
40931;SDS011;36257;46.052;12.540;2022-12-08T02:14:24;3.67;;;3.47;;
40931;SDS011;36257;46.052;12.540;2022-12-08T02:17:11;3.60;;;3.40;;
40931;SDS011;36257;46.052;12.540;2022-12-08T02:19:59;3.63;;;3.43;;
40931;SDS011;36257;46.052;12.540;2022-12-08T02:25:13;3.73;;;3.50;;
40931;SDS011;36257;46.052;12.540;2022-12-08T02:36:03;4.20;;;4.00;;
40931;SDS011;36257;46.052;12.540;2022-12-08T02:41:11;4.23;;;4.00;;
40931;SDS011;36257;46.052;12.540;2022-12-08T02:43:56;3.57;;;3.37;;
40931;SDS011;36257;46.052;12.540;2022-12-08T02:46:44;6.20;;;3.80;;
40931;SDS011;36257;46.052;12.540;2022-12-08T02:49:31;4.18;;;3.22;;
40931;SDS011;36257;46.052;12.540;2022-12-08T02:54:42;3.37;;;3.17;;
40931;SDS011;36257;46.052;12.540;2022-12-08T03:02:34;3.77;;;3.47;;
40931;SDS011;36257;46.052;12.540;2022-12-08T03:08:15;3.43;;;3.23;;
40931;SDS011;36257;46.052;12.540;2022-12-08T03:10:55;3.33;;;3.07;;
40931;SDS011;36257;46.052;12.540;2022-12-08T03:16:05;3.60;;;3.40;;
40931;SDS011;36257;46.052;12.540;2022-12-08T03:18:35;3.77;;;3.57;;
40931;SDS011;36257;46.052;12.540;2022-12-08T03:21:04;3.43;;;3.23;;
40931;SDS011;36257;46.052;12.540;2022-12-08T03:23:31;3.47;;;3.28;;
40931;SDS011;36257;46.052;12.540;2022-12-08T03:26:03;2.80;;;2.70;;
40931;SDS011;36257;46.052;12.540;2022-12-08T03:28:34;3.87;;;3.53;;
40931;SDS011;36257;46.052;12.540;2022-12-08T03:31:02;3.17;;;2.97;;
40931;SDS011;36257;46.052;12.540;2022-12-08T03:33:32;3.33;;;3.13;;
40931;SDS011;36257;46.052;12.540;2022-12-08T03:36:03;3.87;;;3.57;;
40931;SDS011;36257;46.052;12.540;2022-12-08T03:38:38;3.50;;;3.30;;
40931;SDS011;36257;46.052;12.540;2022-12-08T03:41:06;3.03;;;2.90;;
40931;SDS011;36257;46.052;12.540;2022-12-08T03:46:13;3.13;;;2.83;;
40931;SDS011;36257;46.052;12.540;2022-12-08T03:48:40;3.38;;;3.25;;
40931;SDS011;36257;46.052;12.540;2022-12-08T03:51:06;3.10;;;2.93;;
40931;SDS011;36257;46.052;12.540;2022-12-08T03:53:31;3.47;;;3.20;;
40931;SDS011;36257;46.052;12.540;2022-12-08T03:55:57;4.00;;;3.43;;
40931;SDS011;36257;46.052;12.540;2022-12-08T03:58:22;3.30;;;3.10;;
40931;SDS011;36257;46.052;12.540;2022-12-08T04:00:48;3.90;;;3.30;;
40931;SDS011;36257;46.052;12.540;2022-12-08T04:03:14;3.83;;;3.53;;
40931;SDS011;36257;46.052;12.540;2022-12-08T04:05:39;3.23;;;3.13;;
40931;SDS011;36257;46.052;12.540;2022-12-08T04:08:05;3.83;;;3.63;;
40931;SDS011;36257;46.052;12.540;2022-12-08T04:10:31;3.80;;;3.50;;
40931;SDS011;36257;46.052;12.540;2022-12-08T04:12:56;3.90;;;3.70;;
40931;SDS011;36257;46.052;12.540;2022-12-08T04:15:22;3.93;;;3.57;;
40931;SDS011;36257;46.052;12.540;2022-12-08T04:17:47;3.17;;;3.03;;
40931;SDS011;36257;46.052;12.540;2022-12-08T04:20:13;3.13;;;3.00;;
40931;SDS011;36257;46.052;12.540;2022-12-08T04:22:38;3.27;;;3.17;;
40931;SDS011;36257;46.052;12.540;2022-12-08T04:25:04;3.27;;;3.17;;
40931;SDS011;36257;46.052;12.540;2022-12-08T04:27:31;3.77;;;3.57;;
40931;SDS011;36257;46.052;12.540;2022-12-08T04:29:56;4.57;;;3.87;;
40931;SDS011;36257;46.052;12.540;2022-12-08T04:32:22;4.37;;;3.67;;
40931;SDS011;36257;46.052;12.540;2022-12-08T04:34:47;4.17;;;3.93;;
40931;SDS011;36257;46.052;12.540;2022-12-08T04:37:13;4.03;;;3.83;;
40931;SDS011;36257;46.052;12.540;2022-12-08T04:39:38;3.60;;;3.30;;
40931;SDS011;36257;46.052;12.540;2022-12-08T04:42:04;2.90;;;2.80;;
40931;SDS011;36257;46.052;12.540;2022-12-08T04:44:30;3.37;;;3.17;;
40931;SDS011;36257;46.052;12.540;2022-12-08T04:46:55;3.13;;;3.00;;
40931;SDS011;36257;46.052;12.540;2022-12-08T04:49:21;3.67;;;3.57;;
40931;SDS011;36257;46.052;12.540;2022-12-08T04:51:47;3.80;;;3.50;;
40931;SDS011;36257;46.052;12.540;2022-12-08T04:54:12;3.27;;;3.17;;
40931;SDS011;36257;46.052;12.540;2022-12-08T04:56:38;3.47;;;3.27;;
40931;SDS011;36257;46.052;12.540;2022-12-08T04:59:03;3.17;;;2.97;;
40931;SDS011;36257;46.052;12.540;2022-12-08T05:01:29;4.07;;;3.87;;
40931;SDS011;36257;46.052;12.540;2022-12-08T05:03:55;3.70;;;3.50;;
40931;SDS011;36257;46.052;12.540;2022-12-08T05:06:21;3.47;;;3.30;;
40931;SDS011;36257;46.052;12.540;2022-12-08T05:08:46;2.77;;;2.67;;
40931;SDS011;36257;46.052;12.540;2022-12-08T05:11:12;3.60;;;3.40;;
40931;SDS011;36257;46.052;12.540;2022-12-08T05:13:38;3.23;;;2.93;;
40931;SDS011;36257;46.052;12.540;2022-12-08T05:16:04;3.47;;;3.27;;
40931;SDS011;36257;46.052;12.540;2022-12-08T05:18:33;4.23;;;4.03;;
40931;SDS011;36257;46.052;12.540;2022-12-08T05:20:59;3.87;;;3.67;;
40931;SDS011;36257;46.052;12.540;2022-12-08T05:23:25;3.47;;;3.27;;
40931;SDS011;36257;46.052;12.540;2022-12-08T05:25:51;3.90;;;3.70;;
40931;SDS011;36257;46.052;12.540;2022-12-08T05:28:17;4.13;;;3.90;;
40931;SDS011;36257;46.052;12.540;2022-12-08T05:30:42;4.67;;;3.40;;
40931;SDS011;36257;46.052;12.540;2022-12-08T05:33:08;4.37;;;3.97;;
40931;SDS011;36257;46.052;12.540;2022-12-08T05:35:33;5.03;;;3.90;;
40931;SDS011;36257;46.052;12.540;2022-12-08T05:37:59;3.10;;;3.00;;
40931;SDS011;36257;46.052;12.540;2022-12-08T05:40:25;3.37;;;3.17;;
40931;SDS011;36257;46.052;12.540;2022-12-08T05:42:50;4.77;;;4.43;;
40931;SDS011;36257;46.052;12.540;2022-12-08T05:45:16;6.13;;;5.43;;
40931;SDS011;36257;46.052;12.540;2022-12-08T05:47:42;8.07;;;6.53;;
40931;SDS011;36257;46.052;12.540;2022-12-08T05:50:08;7.43;;;6.63;;
40931;SDS011;36257;46.052;12.540;2022-12-08T05:52:34;3.53;;;3.33;;
40931;SDS011;36257;46.052;12.540;2022-12-08T05:54:59;4.10;;;3.80;;
40931;SDS011;36257;46.052;12.540;2022-12-08T05:57:25;3.90;;;3.70;;
40931;SDS011;36257;46.052;12.540;2022-12-08T05:59:51;4.30;;;4.10;;
40931;SDS011;36257;46.052;12.540;2022-12-08T06:02:16;3.70;;;3.50;;
40931;SDS011;36257;46.052;12.540;2022-12-08T06:04:42;3.60;;;3.40;;
40931;SDS011;36257;46.052;12.540;2022-12-08T06:07:07;4.50;;;4.20;;
40931;SDS011;36257;46.052;12.540;2022-12-08T06:09:33;3.93;;;3.73;;
40931;SDS011;36257;46.052;12.540;2022-12-08T06:11:59;3.83;;;3.63;;
40931;SDS011;36257;46.052;12.540;2022-12-08T06:14:25;4.80;;;4.40;;
40931;SDS011;36257;46.052;12.540;2022-12-08T06:16:51;3.77;;;3.57;;
40931;SDS011;36257;46.052;12.540;2022-12-08T06:19:17;4.70;;;4.43;;
40931;SDS011;36257;46.052;12.540;2022-12-08T06:21:43;4.03;;;3.83;;
40931;SDS011;36257;46.052;12.540;2022-12-08T06:24:08;3.73;;;3.53;;
40931;SDS011;36257;46.052;12.540;2022-12-08T06:26:34;3.90;;;3.73;;
40931;SDS011;36257;46.052;12.540;2022-12-08T06:29:00;4.13;;;3.93;;
40931;SDS011;36257;46.052;12.540;2022-12-08T06:31:26;4.20;;;4.00;;
40931;SDS011;36257;46.052;12.540;2022-12-08T06:33:52;4.93;;;4.63;;
40931;SDS011;36257;46.052;12.540;2022-12-08T06:36:19;4.13;;;3.90;;
40931;SDS011;36257;46.052;12.540;2022-12-08T06:38:47;6.90;;;6.30;;
40931;SDS011;36257;46.052;12.540;2022-12-08T06:41:14;6.50;;;5.93;;
40931;SDS011;36257;46.052;12.540;2022-12-08T06:43:40;4.57;;;4.27;;
40931;SDS011;36257;46.052;12.540;2022-12-08T06:46:06;3.60;;;3.27;;
40931;SDS011;36257;46.052;12.540;2022-12-08T06:48:33;4.27;;;4.07;;
40931;SDS011;36257;46.052;12.540;2022-12-08T06:51:09;4.40;;;3.97;;
40931;SDS011;36257;46.052;12.540;2022-12-08T06:53:39;4.43;;;4.00;;
40931;SDS011;36257;46.052;12.540;2022-12-08T06:56:05;4.40;;;4.10;;
40931;SDS011;36257;46.052;12.540;2022-12-08T06:58:31;6.13;;;5.63;;
40931;SDS011;36257;46.052;12.540;2022-12-08T07:01:01;4.63;;;4.23;;
40931;SDS011;36257;46.052;12.540;2022-12-08T07:03:37;4.80;;;4.40;;
40931;SDS011;36257;46.052;12.540;2022-12-08T07:06:04;5.63;;;4.80;;
40931;SDS011;36257;46.052;12.540;2022-12-08T07:08:31;4.77;;;4.43;;
40931;SDS011;36257;46.052;12.540;2022-12-08T07:10:57;6.30;;;5.67;;
40931;SDS011;36257;46.052;12.540;2022-12-08T07:13:22;5.70;;;5.30;;
40931;SDS011;36257;46.052;12.540;2022-12-08T07:15:48;7.03;;;6.33;;
40931;SDS011;36257;46.052;12.540;2022-12-08T07:18:14;8.53;;;7.73;;
40931;SDS011;36257;46.052;12.540;2022-12-08T07:20:39;11.67;;;9.93;;
40931;SDS011;36257;46.052;12.540;2022-12-08T07:23:05;8.47;;;7.67;;
40931;SDS011;36257;46.052;12.540;2022-12-08T07:25:31;7.17;;;6.53;;
40931;SDS011;36257;46.052;12.540;2022-12-08T07:27:56;7.23;;;6.53;;
40931;SDS011;36257;46.052;12.540;2022-12-08T07:30:22;5.70;;;5.30;;
40931;SDS011;36257;46.052;12.540;2022-12-08T07:32:47;7.37;;;6.67;;
40931;SDS011;36257;46.052;12.540;2022-12-08T07:35:13;9.03;;;7.93;;
40931;SDS011;36257;46.052;12.540;2022-12-08T07:37:39;10.10;;;9.10;;
40931;SDS011;36257;46.052;12.540;2022-12-08T07:40:05;14.00;;;10.63;;
40931;SDS011;36257;46.052;12.540;2022-12-08T07:42:32;10.70;;;9.63;;
40931;SDS011;36257;46.052;12.540;2022-12-08T07:44:58;8.20;;;7.60;;
40931;SDS011;36257;46.052;12.540;2022-12-08T07:47:24;7.40;;;6.70;;
40931;SDS011;36257;46.052;12.540;2022-12-08T07:49:50;6.40;;;5.90;;
40931;SDS011;36257;46.052;12.540;2022-12-08T07:52:15;5.83;;;5.43;;
40931;SDS011;36257;46.052;12.540;2022-12-08T07:54:41;5.47;;;5.00;;
40931;SDS011;36257;46.052;12.540;2022-12-08T07:57:07;4.27;;;3.97;;
40931;SDS011;36257;46.052;12.540;2022-12-08T07:59:35;4.97;;;4.57;;
40931;SDS011;36257;46.052;12.540;2022-12-08T08:02:01;5.40;;;4.90;;
40931;SDS011;36257;46.052;12.540;2022-12-08T08:04:26;5.50;;;5.20;;
40931;SDS011;36257;46.052;12.540;2022-12-08T08:06:52;5.77;;;5.17;;
40931;SDS011;36257;46.052;12.540;2022-12-08T08:09:18;5.97;;;5.50;;
40931;SDS011;36257;46.052;12.540;2022-12-08T08:11:43;6.27;;;5.67;;
40931;SDS011;36257;46.052;12.540;2022-12-08T08:14:09;6.20;;;5.60;;
40931;SDS011;36257;46.052;12.540;2022-12-08T08:16:36;7.30;;;4.83;;
40931;SDS011;36257;46.052;12.540;2022-12-08T08:19:01;6.73;;;4.80;;
40931;SDS011;36257;46.052;12.540;2022-12-08T08:21:27;6.33;;;5.30;;
40931;SDS011;36257;46.052;12.540;2022-12-08T08:23:53;4.70;;;4.30;;
40931;SDS011;36257;46.052;12.540;2022-12-08T08:26:18;15.53;;;14.33;;
40931;SDS011;36257;46.052;12.540;2022-12-08T08:28:44;30.87;;;28.00;;
40931;SDS011;36257;46.052;12.540;2022-12-08T08:31:10;12.98;;;11.75;;
40931;SDS011;36257;46.052;12.540;2022-12-08T08:33:36;10.18;;;9.23;;
40931;SDS011;36257;46.052;12.540;2022-12-08T08:36:05;7.18;;;6.18;;
40931;SDS011;36257;46.052;12.540;2022-12-08T08:38:32;6.60;;;6.00;;
40931;SDS011;36257;46.052;12.540;2022-12-08T08:40:57;6.95;;;6.35;;
40931;SDS011;36257;46.052;12.540;2022-12-08T08:43:23;9.02;;;7.63;;
40931;SDS011;36257;46.052;12.540;2022-12-08T08:45:55;8.43;;;7.57;;
40931;SDS011;36257;46.052;12.540;2022-12-08T08:48:22;8.27;;;7.32;;
40931;SDS011;36257;46.052;12.540;2022-12-08T08:50:48;6.15;;;5.55;;
40931;SDS011;36257;46.052;12.540;2022-12-08T08:53:13;9.02;;;7.30;;
40931;SDS011;36257;46.052;12.540;2022-12-08T08:55:39;11.48;;;9.02;;
40931;SDS011;36257;46.052;12.540;2022-12-08T08:58:04;19.08;;;12.88;;
40931;SDS011;36257;46.052;12.540;2022-12-08T09:00:30;21.52;;;13.77;;
40931;SDS011;36257;46.052;12.540;2022-12-08T09:02:56;8.20;;;7.15;;
40931;SDS011;36257;46.052;12.540;2022-12-08T09:05:21;5.50;;;5.00;;
40931;SDS011;36257;46.052;12.540;2022-12-08T09:07:47;4.95;;;4.00;;
40931;SDS011;36257;46.052;12.540;2022-12-08T09:10:12;4.30;;;3.90;;
40931;SDS011;36257;46.052;12.540;2022-12-08T09:12:38;4.55;;;4.15;;
40931;SDS011;36257;46.052;12.540;2022-12-08T09:15:04;6.15;;;4.88;;
40931;SDS011;36257;46.052;12.540;2022-12-08T09:17:30;4.38;;;3.78;;
40931;SDS011;36257;46.052;12.540;2022-12-08T09:19:56;8.07;;;3.90;;
40931;SDS011;36257;46.052;12.540;2022-12-08T09:22:21;3.55;;;3.25;;
40931;SDS011;36257;46.052;12.540;2022-12-08T09:24:47;3.33;;;3.03;;
40931;SDS011;36257;46.052;12.540;2022-12-08T09:27:13;6.32;;;3.72;;
40931;SDS011;36257;46.052;12.540;2022-12-08T09:29:39;3.35;;;2.70;;
40931;SDS011;36257;46.052;12.540;2022-12-08T09:32:04;4.40;;;4.10;;
40931;SDS011;36257;46.052;12.540;2022-12-08T09:34:30;5.20;;;3.83;;
40931;SDS011;36257;46.052;12.540;2022-12-08T09:36:56;4.82;;;4.35;;
40931;SDS011;36257;46.052;12.540;2022-12-08T09:39:22;5.35;;;4.85;;
40931;SDS011;36257;46.052;12.540;2022-12-08T09:41:48;6.13;;;4.13;;
40931;SDS011;36257;46.052;12.540;2022-12-08T09:47:21;20.60;;;13.18;;
40931;SDS011;36257;46.052;12.540;2022-12-08T09:50:06;5.05;;;3.80;;
40931;SDS011;36257;46.052;12.540;2022-12-08T09:52:42;4.13;;;3.70;;
40931;SDS011;36257;46.052;12.540;2022-12-08T09:55:24;4.32;;;3.60;;
40931;SDS011;36257;46.052;12.540;2022-12-08T09:58:02;3.70;;;3.33;;
40931;SDS011;36257;46.052;12.540;2022-12-08T10:00:29;3.83;;;2.85;;
40931;SDS011;36257;46.052;12.540;2022-12-08T10:02:55;3.45;;;2.88;;
40931;SDS011;36257;46.052;12.540;2022-12-08T10:05:21;3.92;;;3.45;;
40931;SDS011;36257;46.052;12.540;2022-12-08T10:10:41;3.80;;;3.50;;
40931;SDS011;36257;46.052;12.540;2022-12-08T10:13:16;3.70;;;3.28;;
40931;SDS011;36257;46.052;12.540;2022-12-08T10:18:45;3.45;;;3.05;;
40931;SDS011;36257;46.052;12.540;2022-12-08T10:21:20;4.22;;;3.78;;
40931;SDS011;36257;46.052;12.540;2022-12-08T10:23:50;2.40;;;2.20;;
40931;SDS011;36257;46.052;12.540;2022-12-08T10:26:22;2.85;;;2.50;;
40931;SDS011;36257;46.052;12.540;2022-12-08T10:28:48;2.92;;;2.63;;
40931;SDS011;36257;46.052;12.540;2022-12-08T10:31:19;2.70;;;2.50;;
40931;SDS011;36257;46.052;12.540;2022-12-08T10:33:47;3.97;;;3.00;;
40931;SDS011;36257;46.052;12.540;2022-12-08T10:36:21;2.92;;;2.63;;
40931;SDS011;36257;46.052;12.540;2022-12-08T10:38:47;4.13;;;3.72;;
40931;SDS011;36257;46.052;12.540;2022-12-08T10:41:13;4.20;;;3.80;;
40931;SDS011;36257;46.052;12.540;2022-12-08T10:43:56;5.80;;;4.70;;
40931;SDS011;36257;46.052;12.540;2022-12-08T10:46:25;4.93;;;2.90;;
40931;SDS011;36257;46.052;12.540;2022-12-08T10:54:03;3.05;;;2.85;;
40931;SDS011;36257;46.052;12.540;2022-12-08T10:56:31;2.80;;;2.28;;
40931;SDS011;36257;46.052;12.540;2022-12-08T10:59:31;2.30;;;2.10;;
40931;SDS011;36257;46.052;12.540;2022-12-08T11:01:52;2.05;;;1.85;;
40931;SDS011;36257;46.052;12.540;2022-12-08T11:06:47;3.10;;;2.08;;
40931;SDS011;36257;46.052;12.540;2022-12-08T11:11:43;3.50;;;3.20;;
40931;SDS011;36257;46.052;12.540;2022-12-08T11:14:15;5.93;;;2.25;;
40931;SDS011;36257;46.052;12.540;2022-12-08T11:16:52;2.65;;;2.45;;
40931;SDS011;36257;46.052;12.540;2022-12-08T11:19:21;4.82;;;3.85;;
40931;SDS011;36257;46.052;12.540;2022-12-08T11:21:53;4.10;;;2.85;;
40931;SDS011;36257;46.052;12.540;2022-12-08T11:27:02;4.22;;;3.55;;
40931;SDS011;36257;46.052;12.540;2022-12-08T11:29:33;13.32;;;10.20;;
40931;SDS011;36257;46.052;12.540;2022-12-08T11:32:01;3.63;;;2.35;;
40931;SDS011;36257;46.052;12.540;2022-12-08T11:37:11;4.53;;;3.88;;
40931;SDS011;36257;46.052;12.540;2022-12-08T11:39:46;3.65;;;2.30;;
40931;SDS011;36257;46.052;12.540;2022-12-08T11:42:15;6.88;;;6.18;;
40931;SDS011;36257;46.052;12.540;2022-12-08T11:45:20;3.45;;;3.15;;
40931;SDS011;36257;46.052;12.540;2022-12-08T11:47:42;3.30;;;3.10;;
40931;SDS011;36257;46.052;12.540;2022-12-08T11:50:24;3.22;;;1.98;;
40931;SDS011;36257;46.052;12.540;2022-12-08T11:53:05;2.00;;;1.90;;
40931;SDS011;36257;46.052;12.540;2022-12-08T11:55:40;8.85;;;4.55;;
40931;SDS011;36257;46.052;12.540;2022-12-08T11:58:17;18.35;;;10.88;;
40931;SDS011;36257;46.052;12.540;2022-12-08T12:00:46;18.15;;;12.73;;
40931;SDS011;36257;46.052;12.540;2022-12-08T12:09:00;2.92;;;2.63;;
40931;SDS011;36257;46.052;12.540;2022-12-08T12:11:54;3.60;;;3.30;;
40931;SDS011;36257;46.052;12.540;2022-12-08T12:20:36;3.35;;;3.05;;
40931;SDS011;36257;46.052;12.540;2022-12-08T12:25:59;3.47;;;3.08;;
40931;SDS011;36257;46.052;12.540;2022-12-08T12:28:30;5.18;;;2.80;;
40931;SDS011;36257;46.052;12.540;2022-12-08T12:31:14;4.03;;;3.58;;
40931;SDS011;36257;46.052;12.540;2022-12-08T12:36:10;3.30;;;3.00;;
40931;SDS011;36257;46.052;12.540;2022-12-08T12:38:38;5.50;;;3.28;;
40931;SDS011;36257;46.052;12.540;2022-12-08T12:49:46;3.40;;;2.60;;
40931;SDS011;36257;46.052;12.540;2022-12-08T12:52:06;3.42;;;3.03;;
40931;SDS011;36257;46.052;12.540;2022-12-08T12:57:35;3.95;;;3.08;;
40931;SDS011;36257;46.052;12.540;2022-12-08T13:02:38;4.22;;;3.22;;
40931;SDS011;36257;46.052;12.540;2022-12-08T13:05:32;3.28;;;2.70;;
40931;SDS011;36257;46.052;12.540;2022-12-08T13:08:18;3.58;;;3.28;;
40931;SDS011;36257;46.052;12.540;2022-12-08T13:10:48;3.10;;;2.80;;
40931;SDS011;36257;46.052;12.540;2022-12-08T13:13:21;2.65;;;2.45;;
40931;SDS011;36257;46.052;12.540;2022-12-08T13:15:51;3.30;;;2.75;;
40931;SDS011;36257;46.052;12.540;2022-12-08T13:21:34;3.47;;;1.95;;
40931;SDS011;36257;46.052;12.540;2022-12-08T13:23:50;2.53;;;2.25;;
40931;SDS011;36257;46.052;12.540;2022-12-08T13:29:29;2.60;;;2.30;;
40931;SDS011;36257;46.052;12.540;2022-12-08T13:42:23;2.50;;;2.30;;
40931;SDS011;36257;46.052;12.540;2022-12-08T13:47:53;2.90;;;2.28;;
40931;SDS011;36257;46.052;12.540;2022-12-08T13:50:40;3.80;;;3.22;;
40931;SDS011;36257;46.052;12.540;2022-12-08T13:53:29;3.17;;;2.88;;
40931;SDS011;36257;46.052;12.540;2022-12-08T13:56:02;3.60;;;3.05;;
40931;SDS011;36257;46.052;12.540;2022-12-08T13:58:33;3.28;;;2.97;;
40931;SDS011;36257;46.052;12.540;2022-12-08T14:01:17;3.40;;;3.10;;
40931;SDS011;36257;46.052;12.540;2022-12-08T14:06:29;3.90;;;3.60;;
40931;SDS011;36257;46.052;12.540;2022-12-08T14:09:01;3.88;;;3.42;;
40931;SDS011;36257;46.052;12.540;2022-12-08T14:11:37;4.22;;;3.83;;
40931;SDS011;36257;46.052;12.540;2022-12-08T14:14:19;3.50;;;3.20;;
40931;SDS011;36257;46.052;12.540;2022-12-08T14:16:48;3.88;;;3.58;;
40931;SDS011;36257;46.052;12.540;2022-12-08T14:19:26;3.90;;;2.90;;
40931;SDS011;36257;46.052;12.540;2022-12-08T14:21:58;4.18;;;3.63;;
40931;SDS011;36257;46.052;12.540;2022-12-08T14:24:33;4.68;;;3.90;;
40931;SDS011;36257;46.052;12.540;2022-12-08T14:27:00;4.55;;;3.80;;
40931;SDS011;36257;46.052;12.540;2022-12-08T14:32:28;6.03;;;5.35;;
40931;SDS011;36257;46.052;12.540;2022-12-08T14:37:37;9.38;;;7.28;;
40931;SDS011;36257;46.052;12.540;2022-12-08T14:40:09;11.27;;;10.07;;
40931;SDS011;36257;46.052;12.540;2022-12-08T14:42:48;7.38;;;6.68;;
40931;SDS011;36257;46.052;12.540;2022-12-08T14:45:18;6.22;;;5.72;;
40931;SDS011;36257;46.052;12.540;2022-12-08T14:47:45;6.20;;;5.47;;
40931;SDS011;36257;46.052;12.540;2022-12-08T14:53:10;6.00;;;5.40;;
40931;SDS011;36257;46.052;12.540;2022-12-08T14:55:39;8.68;;;6.60;;
40931;SDS011;36257;46.052;12.540;2022-12-08T14:58:13;7.88;;;6.93;;
40931;SDS011;36257;46.052;12.540;2022-12-08T15:00:45;15.35;;;11.90;;
40931;SDS011;36257;46.052;12.540;2022-12-08T15:03:14;11.52;;;9.75;;
40931;SDS011;36257;46.052;12.540;2022-12-08T15:08:08;21.60;;;12.32;;
40931;SDS011;36257;46.052;12.540;2022-12-08T15:10:36;39.03;;;20.30;;
40931;SDS011;36257;46.052;12.540;2022-12-08T15:15:48;30.45;;;16.25;;
40931;SDS011;36257;46.052;12.540;2022-12-08T15:18:16;24.95;;;12.80;;
40931;SDS011;36257;46.052;12.540;2022-12-08T15:20:53;24.88;;;14.73;;
40931;SDS011;36257;46.052;12.540;2022-12-08T15:23:25;26.77;;;16.33;;
40931;SDS011;36257;46.052;12.540;2022-12-08T15:25:55;25.23;;;15.98;;
40931;SDS011;36257;46.052;12.540;2022-12-08T15:28:22;15.40;;;11.15;;
40931;SDS011;36257;46.052;12.540;2022-12-08T15:30:50;13.15;;;10.00;;
40931;SDS011;36257;46.052;12.540;2022-12-08T15:33:17;25.70;;;15.80;;
40931;SDS011;36257;46.052;12.540;2022-12-08T15:35:43;16.33;;;10.80;;
40931;SDS011;36257;46.052;12.540;2022-12-08T15:38:22;17.90;;;10.60;;
40931;SDS011;36257;46.052;12.540;2022-12-08T15:40:50;7.97;;;6.07;;
40931;SDS011;36257;46.052;12.540;2022-12-08T15:43:17;7.50;;;6.80;;
40931;SDS011;36257;46.052;12.540;2022-12-08T15:45:43;10.70;;;8.93;;
40931;SDS011;36257;46.052;12.540;2022-12-08T15:48:14;26.80;;;17.35;;
40931;SDS011;36257;46.052;12.540;2022-12-08T15:50:45;11.15;;;9.30;;
40931;SDS011;36257;46.052;12.540;2022-12-08T15:53:12;8.47;;;7.33;;
40931;SDS011;36257;46.052;12.540;2022-12-08T15:55:38;6.83;;;6.23;;
40931;SDS011;36257;46.052;12.540;2022-12-08T15:58:04;7.80;;;7.00;;
40931;SDS011;36257;46.052;12.540;2022-12-08T16:00:31;8.63;;;7.83;;
40931;SDS011;36257;46.052;12.540;2022-12-08T16:02:59;7.23;;;6.60;;
40931;SDS011;36257;46.052;12.540;2022-12-08T16:05:26;6.60;;;6.00;;
40931;SDS011;36257;46.052;12.540;2022-12-08T16:07:55;6.40;;;5.80;;
40931;SDS011;36257;46.052;12.540;2022-12-08T16:10:23;6.77;;;6.17;;
40931;SDS011;36257;46.052;12.540;2022-12-08T16:12:50;6.83;;;6.17;;
40931;SDS011;36257;46.052;12.540;2022-12-08T16:15:36;7.07;;;6.30;;
40931;SDS011;36257;46.052;12.540;2022-12-08T16:18:04;7.73;;;6.93;;
40931;SDS011;36257;46.052;12.540;2022-12-08T16:20:30;17.40;;;11.73;;
40931;SDS011;36257;46.052;12.540;2022-12-08T16:22:56;19.53;;;11.83;;
40931;SDS011;36257;46.052;12.540;2022-12-08T16:25:22;13.60;;;9.87;;
40931;SDS011;36257;46.052;12.540;2022-12-08T16:27:50;10.73;;;9.10;;
40931;SDS011;36257;46.052;12.540;2022-12-08T16:30:17;11.63;;;8.80;;
40931;SDS011;36257;46.052;12.540;2022-12-08T16:32:44;10.13;;;8.50;;
40931;SDS011;36257;46.052;12.540;2022-12-08T16:35:10;10.37;;;9.27;;
40931;SDS011;36257;46.052;12.540;2022-12-08T16:37:39;11.13;;;8.63;;
40931;SDS011;36257;46.052;12.540;2022-12-08T16:40:05;7.93;;;7.13;;
40931;SDS011;36257;46.052;12.540;2022-12-08T16:42:32;9.53;;;7.30;;
40931;SDS011;36257;46.052;12.540;2022-12-08T16:47:37;6.53;;;6.03;;
40931;SDS011;36257;46.052;12.540;2022-12-08T16:50:05;7.10;;;6.50;;
40931;SDS011;36257;46.052;12.540;2022-12-08T16:52:35;6.17;;;5.67;;